METAR Formatted Surface Weather Observation
Issued by NWS

Home | Current Version | Previous Version | Text Only | Print | Product List | Glossary On
Versions: 1 2
000
SPZS31 NSTU 181515
MTRSPP
SPECI NSTU 181511Z VRB03KT 1/4SM +SHRA VV004 25/25 A2969 RMK=


USA.gov is the U.S. government's official web portal to all federal, state and local government web resources and services.